sensor_id;sensor_type;location;lat;lon;timestamp;P1;durP1;ratioP1;P2;durP2;ratioP2
7047;SDS011;3565;53.254;10.352;2024-01-30T00:00:02;11.23;;;7.07;;
7047;SDS011;3565;53.254;10.352;2024-01-30T00:02:36;10.93;;;7.67;;
7047;SDS011;3565;53.254;10.352;2024-01-30T00:05:06;10.83;;;7.77;;
7047;SDS011;3565;53.254;10.352;2024-01-30T00:07:36;10.60;;;7.57;;
7047;SDS011;3565;53.254;10.352;2024-01-30T00:12:47;12.60;;;7.57;;
7047;SDS011;3565;53.254;10.352;2024-01-30T00:15:16;12.27;;;8.10;;
7047;SDS011;3565;53.254;10.352;2024-01-30T00:20:22;9.70;;;7.30;;
7047;SDS011;3565;53.254;10.352;2024-01-30T00:22:51;13.27;;;8.23;;
7047;SDS011;3565;53.254;10.352;2024-01-30T00:27:58;12.10;;;8.60;;
7047;SDS011;3565;53.254;10.352;2024-01-30T00:30:27;12.53;;;8.20;;
7047;SDS011;3565;53.254;10.352;2024-01-30T00:33:06;12.53;;;9.17;;
7047;SDS011;3565;53.254;10.352;2024-01-30T00:35:35;15.03;;;8.43;;
7047;SDS011;3565;53.254;10.352;2024-01-30T00:38:05;12.17;;;8.47;;
7047;SDS011;3565;53.254;10.352;2024-01-30T00:40:44;12.00;;;8.53;;
7047;SDS011;3565;53.254;10.352;2024-01-30T00:43:14;12.57;;;8.03;;
7047;SDS011;3565;53.254;10.352;2024-01-30T00:48:23;15.37;;;8.07;;
7047;SDS011;3565;53.254;10.352;2024-01-30T00:50:52;13.00;;;8.77;;
7047;SDS011;3565;53.254;10.352;2024-01-30T00:53:21;13.93;;;8.23;;
7047;SDS011;3565;53.254;10.352;2024-01-30T00:55:59;12.60;;;9.13;;
7047;SDS011;3565;53.254;10.352;2024-01-30T00:58:31;13.27;;;9.30;;
7047;SDS011;3565;53.254;10.352;2024-01-30T01:01:16;13.40;;;9.10;;
7047;SDS011;3565;53.254;10.352;2024-01-30T01:06:26;14.00;;;9.03;;
7047;SDS011;3565;53.254;10.352;2024-01-30T01:08:56;12.23;;;8.47;;
7047;SDS011;3565;53.254;10.352;2024-01-30T01:11:25;12.53;;;8.57;;
7047;SDS011;3565;53.254;10.352;2024-01-30T01:16:34;12.53;;;8.43;;
7047;SDS011;3565;53.254;10.352;2024-01-30T01:19:04;12.53;;;8.40;;
7047;SDS011;3565;53.254;10.352;2024-01-30T01:21:33;12.87;;;8.67;;
7047;SDS011;3565;53.254;10.352;2024-01-30T01:24:03;12.27;;;8.50;;
7047;SDS011;3565;53.254;10.352;2024-01-30T01:26:44;15.33;;;8.43;;
7047;SDS011;3565;53.254;10.352;2024-01-30T01:29:13;15.27;;;9.00;;
7047;SDS011;3565;53.254;10.352;2024-01-30T01:31:42;12.90;;;8.50;;
7047;SDS011;3565;53.254;10.352;2024-01-30T01:34:12;11.30;;;8.40;;
7047;SDS011;3565;53.254;10.352;2024-01-30T01:36:41;13.50;;;8.27;;
7047;SDS011;3565;53.254;10.352;2024-01-30T01:39:10;13.83;;;8.40;;
7047;SDS011;3565;53.254;10.352;2024-01-30T01:41:39;12.40;;;7.90;;
7047;SDS011;3565;53.254;10.352;2024-01-30T01:46:46;10.00;;;7.47;;
7047;SDS011;3565;53.254;10.352;2024-01-30T01:49:18;13.00;;;8.37;;
7047;SDS011;3565;53.254;10.352;2024-01-30T01:54:30;13.13;;;8.07;;
7047;SDS011;3565;53.254;10.352;2024-01-30T01:57:00;12.70;;;8.00;;
7047;SDS011;3565;53.254;10.352;2024-01-30T02:02:08;11.03;;;8.23;;
7047;SDS011;3565;53.254;10.352;2024-01-30T02:04:47;11.80;;;7.97;;
7047;SDS011;3565;53.254;10.352;2024-01-30T02:07:16;12.70;;;7.93;;
7047;SDS011;3565;53.254;10.352;2024-01-30T02:12:23;15.07;;;8.23;;
7047;SDS011;3565;53.254;10.352;2024-01-30T02:14:53;12.87;;;8.07;;
7047;SDS011;3565;53.254;10.352;2024-01-30T02:20:00;13.83;;;8.67;;
7047;SDS011;3565;53.254;10.352;2024-01-30T02:22:32;12.57;;;8.30;;
7047;SDS011;3565;53.254;10.352;2024-01-30T02:25:12;13.87;;;9.43;;
7047;SDS011;3565;53.254;10.352;2024-01-30T02:27:42;11.47;;;7.77;;
7047;SDS011;3565;53.254;10.352;2024-01-30T02:32:50;15.13;;;8.77;;
7047;SDS011;3565;53.254;10.352;2024-01-30T02:35:20;13.47;;;9.17;;
7047;SDS011;3565;53.254;10.352;2024-01-30T02:40:29;13.27;;;8.87;;
7047;SDS011;3565;53.254;10.352;2024-01-30T02:42:58;13.53;;;8.43;;
7047;SDS011;3565;53.254;10.352;2024-01-30T02:45:29;11.80;;;7.97;;
7047;SDS011;3565;53.254;10.352;2024-01-30T02:50:36;13.33;;;8.77;;
7047;SDS011;3565;53.254;10.352;2024-01-30T02:53:05;12.07;;;8.00;;
7047;SDS011;3565;53.254;10.352;2024-01-30T02:58:11;13.70;;;8.57;;
7047;SDS011;3565;53.254;10.352;2024-01-30T03:00:40;13.30;;;8.03;;
7047;SDS011;3565;53.254;10.352;2024-01-30T03:03:09;13.37;;;8.80;;
7047;SDS011;3565;53.254;10.352;2024-01-30T03:05:38;11.67;;;8.23;;
7047;SDS011;3565;53.254;10.352;2024-01-30T03:08:07;13.27;;;8.90;;
7047;SDS011;3565;53.254;10.352;2024-01-30T03:10:46;14.73;;;9.10;;
7047;SDS011;3565;53.254;10.352;2024-01-30T03:13:15;15.07;;;8.37;;
7047;SDS011;3565;53.254;10.352;2024-01-30T03:18:21;13.17;;;8.40;;
7047;SDS011;3565;53.254;10.352;2024-01-30T03:20:50;13.07;;;9.20;;
7047;SDS011;3565;53.254;10.352;2024-01-30T03:25:59;14.93;;;8.90;;
7047;SDS011;3565;53.254;10.352;2024-01-30T03:28:30;12.83;;;8.60;;
7047;SDS011;3565;53.254;10.352;2024-01-30T03:30:59;14.80;;;8.70;;
7047;SDS011;3565;53.254;10.352;2024-01-30T03:36:06;15.30;;;9.30;;
7047;SDS011;3565;53.254;10.352;2024-01-30T03:38:37;13.83;;;9.60;;
7047;SDS011;3565;53.254;10.352;2024-01-30T03:41:08;14.73;;;9.97;;
7047;SDS011;3565;53.254;10.352;2024-01-30T03:43:39;16.63;;;10.87;;
7047;SDS011;3565;53.254;10.352;2024-01-30T03:48:46;19.40;;;9.93;;
7047;SDS011;3565;53.254;10.352;2024-01-30T03:51:16;17.27;;;9.63;;
7047;SDS011;3565;53.254;10.352;2024-01-30T03:56:22;14.10;;;9.33;;
7047;SDS011;3565;53.254;10.352;2024-01-30T03:58:52;14.47;;;9.40;;
7047;SDS011;3565;53.254;10.352;2024-01-30T04:01:22;20.10;;;10.30;;
7047;SDS011;3565;53.254;10.352;2024-01-30T04:06:28;18.63;;;10.83;;
7047;SDS011;3565;53.254;10.352;2024-01-30T04:08:57;17.03;;;9.67;;
7047;SDS011;3565;53.254;10.352;2024-01-30T04:11:27;14.97;;;9.93;;
7047;SDS011;3565;53.254;10.352;2024-01-30T04:16:33;16.87;;;9.80;;
7047;SDS011;3565;53.254;10.352;2024-01-30T04:19:03;17.00;;;9.97;;
7047;SDS011;3565;53.254;10.352;2024-01-30T04:21:32;14.57;;;9.30;;
7047;SDS011;3565;53.254;10.352;2024-01-30T04:26:38;14.60;;;9.73;;
7047;SDS011;3565;53.254;10.352;2024-01-30T04:29:07;15.90;;;9.63;;
7047;SDS011;3565;53.254;10.352;2024-01-30T04:31:36;17.83;;;9.97;;
7047;SDS011;3565;53.254;10.352;2024-01-30T04:36:49;15.63;;;9.33;;
7047;SDS011;3565;53.254;10.352;2024-01-30T04:39:19;17.60;;;10.30;;
7047;SDS011;3565;53.254;10.352;2024-01-30T04:41:48;17.30;;;10.03;;
7047;SDS011;3565;53.254;10.352;2024-01-30T04:44:18;16.07;;;10.10;;
7047;SDS011;3565;53.254;10.352;2024-01-30T04:46:47;16.80;;;10.10;;
7047;SDS011;3565;53.254;10.352;2024-01-30T04:51:53;16.80;;;10.60;;
7047;SDS011;3565;53.254;10.352;2024-01-30T04:54:23;16.50;;;9.97;;
7047;SDS011;3565;53.254;10.352;2024-01-30T04:59:29;20.57;;;10.53;;
7047;SDS011;3565;53.254;10.352;2024-01-30T05:01:58;18.00;;;10.40;;
7047;SDS011;3565;53.254;10.352;2024-01-30T05:07:04;18.63;;;11.30;;
7047;SDS011;3565;53.254;10.352;2024-01-30T05:09:34;20.80;;;11.57;;
7047;SDS011;3565;53.254;10.352;2024-01-30T05:12:03;17.90;;;10.87;;
7047;SDS011;3565;53.254;10.352;2024-01-30T05:17:10;17.67;;;11.03;;
7047;SDS011;3565;53.254;10.352;2024-01-30T05:19:40;19.43;;;10.80;;
7047;SDS011;3565;53.254;10.352;2024-01-30T05:22:09;18.23;;;11.20;;
7047;SDS011;3565;53.254;10.352;2024-01-30T05:24:41;20.50;;;11.03;;
7047;SDS011;3565;53.254;10.352;2024-01-30T05:27:10;17.47;;;11.13;;
7047;SDS011;3565;53.254;10.352;2024-01-30T05:32:17;17.00;;;11.20;;
7047;SDS011;3565;53.254;10.352;2024-01-30T05:34:46;18.83;;;10.70;;
7047;SDS011;3565;53.254;10.352;2024-01-30T05:39:54;17.40;;;10.10;;
7047;SDS011;3565;53.254;10.352;2024-01-30T05:42:24;20.03;;;11.30;;
7047;SDS011;3565;53.254;10.352;2024-01-30T05:47:31;16.33;;;10.83;;
7047;SDS011;3565;53.254;10.352;2024-01-30T05:50:01;18.17;;;10.97;;
7047;SDS011;3565;53.254;10.352;2024-01-30T05:52:39;18.03;;;11.57;;
7047;SDS011;3565;53.254;10.352;2024-01-30T05:55:09;24.00;;;13.27;;
7047;SDS011;3565;53.254;10.352;2024-01-30T05:57:39;25.00;;;12.73;;
7047;SDS011;3565;53.254;10.352;2024-01-30T06:00:08;18.27;;;11.90;;
7047;SDS011;3565;53.254;10.352;2024-01-30T06:02:38;20.17;;;11.83;;
7047;SDS011;3565;53.254;10.352;2024-01-30T06:05:17;21.00;;;11.70;;
7047;SDS011;3565;53.254;10.352;2024-01-30T06:10:23;16.97;;;11.43;;
7047;SDS011;3565;53.254;10.352;2024-01-30T06:12:53;16.83;;;11.07;;
7047;SDS011;3565;53.254;10.352;2024-01-30T06:17:59;16.57;;;11.07;;
7047;SDS011;3565;53.254;10.352;2024-01-30T06:20:29;17.70;;;11.00;;
7047;SDS011;3565;53.254;10.352;2024-01-30T06:22:58;22.17;;;11.90;;
7047;SDS011;3565;53.254;10.352;2024-01-30T06:28:05;20.87;;;11.43;;
7047;SDS011;3565;53.254;10.352;2024-01-30T06:30:34;20.77;;;12.33;;
7047;SDS011;3565;53.254;10.352;2024-01-30T06:33:04;20.10;;;10.97;;
7047;SDS011;3565;53.254;10.352;2024-01-30T06:38:11;21.70;;;12.00;;
7047;SDS011;3565;53.254;10.352;2024-01-30T06:40:42;18.43;;;11.40;;
7047;SDS011;3565;53.254;10.352;2024-01-30T06:43:11;19.47;;;12.07;;
7047;SDS011;3565;53.254;10.352;2024-01-30T06:45:50;21.07;;;12.80;;
7047;SDS011;3565;53.254;10.352;2024-01-30T06:48:20;20.97;;;12.23;;
7047;SDS011;3565;53.254;10.352;2024-01-30T06:50:49;19.10;;;12.27;;
7047;SDS011;3565;53.254;10.352;2024-01-30T06:53:20;19.43;;;11.23;;
7047;SDS011;3565;53.254;10.352;2024-01-30T06:55:49;19.30;;;11.37;;
7047;SDS011;3565;53.254;10.352;2024-01-30T06:58:19;19.03;;;11.57;;
7047;SDS011;3565;53.254;10.352;2024-01-30T07:03:25;20.67;;;12.07;;
7047;SDS011;3565;53.254;10.352;2024-01-30T07:05:54;17.67;;;11.60;;
7047;SDS011;3565;53.254;10.352;2024-01-30T07:11:00;22.90;;;12.43;;
7047;SDS011;3565;53.254;10.352;2024-01-30T07:13:29;22.50;;;12.77;;
7047;SDS011;3565;53.254;10.352;2024-01-30T07:18:36;23.83;;;12.50;;
7047;SDS011;3565;53.254;10.352;2024-01-30T07:21:06;20.93;;;13.53;;
7047;SDS011;3565;53.254;10.352;2024-01-30T07:23:37;26.87;;;13.27;;
7047;SDS011;3565;53.254;10.352;2024-01-30T07:28:44;21.80;;;12.90;;
7047;SDS011;3565;53.254;10.352;2024-01-30T07:31:14;20.53;;;12.63;;
7047;SDS011;3565;53.254;10.352;2024-01-30T07:33:43;22.83;;;12.63;;
7047;SDS011;3565;53.254;10.352;2024-01-30T07:36:12;21.13;;;12.97;;
7047;SDS011;3565;53.254;10.352;2024-01-30T07:38:41;20.70;;;12.47;;
7047;SDS011;3565;53.254;10.352;2024-01-30T07:41:11;19.87;;;12.43;;
7047;SDS011;3565;53.254;10.352;2024-01-30T07:43:40;21.13;;;12.73;;
7047;SDS011;3565;53.254;10.352;2024-01-30T07:46:11;23.27;;;13.23;;
7047;SDS011;3565;53.254;10.352;2024-01-30T07:48:40;23.97;;;13.03;;
7047;SDS011;3565;53.254;10.352;2024-01-30T07:51:10;21.93;;;12.80;;
7047;SDS011;3565;53.254;10.352;2024-01-30T07:53:39;21.63;;;12.13;;
7047;SDS011;3565;53.254;10.352;2024-01-30T07:56:11;21.33;;;13.53;;
7047;SDS011;3565;53.254;10.352;2024-01-30T08:01:19;21.33;;;12.53;;
7047;SDS011;3565;53.254;10.352;2024-01-30T08:03:48;20.67;;;13.17;;
7047;SDS011;3565;53.254;10.352;2024-01-30T08:08:54;18.37;;;12.13;;
7047;SDS011;3565;53.254;10.352;2024-01-30T08:11:26;21.93;;;13.13;;
7047;SDS011;3565;53.254;10.352;2024-01-30T08:13:57;23.03;;;12.87;;
7047;SDS011;3565;53.254;10.352;2024-01-30T08:19:04;18.30;;;12.17;;
7047;SDS011;3565;53.254;10.352;2024-01-30T08:21:33;21.03;;;12.47;;
7047;SDS011;3565;53.254;10.352;2024-01-30T08:26:43;21.03;;;12.03;;
7047;SDS011;3565;53.254;10.352;2024-01-30T08:29:12;18.47;;;11.40;;
7047;SDS011;3565;53.254;10.352;2024-01-30T08:31:41;19.10;;;11.33;;
7047;SDS011;3565;53.254;10.352;2024-01-30T08:34:10;16.90;;;11.10;;
7047;SDS011;3565;53.254;10.352;2024-01-30T08:39:17;18.80;;;11.33;;
7047;SDS011;3565;53.254;10.352;2024-01-30T08:41:46;16.53;;;11.30;;
7047;SDS011;3565;53.254;10.352;2024-01-30T08:44:15;17.60;;;11.27;;
7047;SDS011;3565;53.254;10.352;2024-01-30T08:46:53;20.23;;;11.37;;
7047;SDS011;3565;53.254;10.352;2024-01-30T08:49:23;16.83;;;11.07;;
7047;SDS011;3565;53.254;10.352;2024-01-30T08:51:52;17.53;;;11.50;;
7047;SDS011;3565;53.254;10.352;2024-01-30T08:56:58;16.40;;;10.60;;
7047;SDS011;3565;53.254;10.352;2024-01-30T08:59:28;16.00;;;10.80;;
7047;SDS011;3565;53.254;10.352;2024-01-30T09:01:57;16.60;;;10.87;;
7047;SDS011;3565;53.254;10.352;2024-01-30T09:07:03;16.87;;;10.43;;
7047;SDS011;3565;53.254;10.352;2024-01-30T09:09:34;18.47;;;11.20;;
7047;SDS011;3565;53.254;10.352;2024-01-30T09:12:07;15.67;;;10.23;;
7047;SDS011;3565;53.254;10.352;2024-01-30T09:14:38;16.13;;;10.03;;
7047;SDS011;3565;53.254;10.352;2024-01-30T09:17:17;16.60;;;10.80;;
7047;SDS011;3565;53.254;10.352;2024-01-30T09:19:46;15.13;;;9.83;;
7047;SDS011;3565;53.254;10.352;2024-01-30T09:22:15;16.50;;;10.10;;
7047;SDS011;3565;53.254;10.352;2024-01-30T09:27:21;17.90;;;9.70;;
7047;SDS011;3565;53.254;10.352;2024-01-30T09:29:50;17.10;;;9.83;;
7047;SDS011;3565;53.254;10.352;2024-01-30T09:32:19;17.50;;;10.73;;
7047;SDS011;3565;53.254;10.352;2024-01-30T09:34:48;13.83;;;9.80;;
7047;SDS011;3565;53.254;10.352;2024-01-30T09:37:17;14.17;;;10.07;;
7047;SDS011;3565;53.254;10.352;2024-01-30T09:39:47;13.63;;;9.23;;
7047;SDS011;3565;53.254;10.352;2024-01-30T09:42:18;13.30;;;8.73;;
7047;SDS011;3565;53.254;10.352;2024-01-30T09:44:51;15.70;;;9.33;;
7047;SDS011;3565;53.254;10.352;2024-01-30T09:47:21;13.87;;;9.80;;
7047;SDS011;3565;53.254;10.352;2024-01-30T09:52:28;13.03;;;9.43;;
7047;SDS011;3565;53.254;10.352;2024-01-30T09:54:57;14.23;;;9.27;;
7047;SDS011;3565;53.254;10.352;2024-01-30T09:57:28;13.87;;;9.30;;
7047;SDS011;3565;53.254;10.352;2024-01-30T10:02:35;14.90;;;9.30;;
7047;SDS011;3565;53.254;10.352;2024-01-30T10:05:05;16.27;;;9.20;;
7047;SDS011;3565;53.254;10.352;2024-01-30T10:07:50;12.87;;;9.40;;
7047;SDS011;3565;53.254;10.352;2024-01-30T10:10:22;13.37;;;8.60;;
7047;SDS011;3565;53.254;10.352;2024-01-30T10:12:51;15.43;;;9.60;;
7047;SDS011;3565;53.254;10.352;2024-01-30T10:15:20;14.87;;;8.90;;
7047;SDS011;3565;53.254;10.352;2024-01-30T10:20:26;13.70;;;9.00;;
7047;SDS011;3565;53.254;10.352;2024-01-30T10:22:54;14.07;;;8.83;;
7047;SDS011;3565;53.254;10.352;2024-01-30T10:28:03;12.20;;;9.33;;
7047;SDS011;3565;53.254;10.352;2024-01-30T10:30:33;13.80;;;8.47;;
7047;SDS011;3565;53.254;10.352;2024-01-30T10:35:39;12.77;;;8.30;;
7047;SDS011;3565;53.254;10.352;2024-01-30T10:38:09;14.40;;;8.70;;
7047;SDS011;3565;53.254;10.352;2024-01-30T10:40:40;13.87;;;9.53;;
7047;SDS011;3565;53.254;10.352;2024-01-30T10:45:50;12.13;;;8.20;;
7047;SDS011;3565;53.254;10.352;2024-01-30T10:48:21;14.57;;;8.63;;
7047;SDS011;3565;53.254;10.352;2024-01-30T10:50:53;11.53;;;8.27;;
7047;SDS011;3565;53.254;10.352;2024-01-30T10:56:04;12.70;;;8.27;;
7047;SDS011;3565;53.254;10.352;2024-01-30T10:58:34;12.50;;;8.13;;
7047;SDS011;3565;53.254;10.352;2024-01-30T11:03:40;13.33;;;7.90;;
7047;SDS011;3565;53.254;10.352;2024-01-30T11:06:11;12.57;;;7.80;;
7047;SDS011;3565;53.254;10.352;2024-01-30T11:08:43;12.57;;;8.40;;
7047;SDS011;3565;53.254;10.352;2024-01-30T11:13:51;11.10;;;7.40;;
7047;SDS011;3565;53.254;10.352;2024-01-30T11:16:20;11.40;;;7.87;;
7047;SDS011;3565;53.254;10.352;2024-01-30T11:18:50;10.57;;;6.57;;
7047;SDS011;3565;53.254;10.352;2024-01-30T11:21:19;10.77;;;7.83;;
7047;SDS011;3565;53.254;10.352;2024-01-30T11:23:49;10.73;;;7.27;;
7047;SDS011;3565;53.254;10.352;2024-01-30T11:26:18;11.90;;;7.60;;
7047;SDS011;3565;53.254;10.352;2024-01-30T11:28:53;10.03;;;7.37;;
7047;SDS011;3565;53.254;10.352;2024-01-30T11:31:24;9.07;;;6.70;;
7047;SDS011;3565;53.254;10.352;2024-01-30T11:36:30;10.87;;;6.73;;
7047;SDS011;3565;53.254;10.352;2024-01-30T11:39:03;10.10;;;6.67;;
7047;SDS011;3565;53.254;10.352;2024-01-30T11:41:34;12.97;;;6.60;;
7047;SDS011;3565;53.254;10.352;2024-01-30T11:46:42;10.30;;;6.37;;
7047;SDS011;3565;53.254;10.352;2024-01-30T11:49:10;9.13;;;6.40;;
7047;SDS011;3565;53.254;10.352;2024-01-30T11:51:40;9.70;;;6.73;;
7047;SDS011;3565;53.254;10.352;2024-01-30T11:56:46;11.07;;;6.47;;
7047;SDS011;3565;53.254;10.352;2024-01-30T11:59:15;12.93;;;6.70;;
7047;SDS011;3565;53.254;10.352;2024-01-30T12:01:44;11.40;;;6.77;;
7047;SDS011;3565;53.254;10.352;2024-01-30T12:06:51;11.70;;;7.60;;
7047;SDS011;3565;53.254;10.352;2024-01-30T12:09:20;11.63;;;7.63;;
7047;SDS011;3565;53.254;10.352;2024-01-30T12:11:59;9.77;;;7.00;;
7047;SDS011;3565;53.254;10.352;2024-01-30T12:14:28;13.23;;;6.93;;
7047;SDS011;3565;53.254;10.352;2024-01-30T12:19:34;12.40;;;7.43;;
7047;SDS011;3565;53.254;10.352;2024-01-30T12:22:04;9.67;;;6.60;;
7047;SDS011;3565;53.254;10.352;2024-01-30T12:27:10;8.27;;;6.60;;
7047;SDS011;3565;53.254;10.352;2024-01-30T12:29:42;9.70;;;6.87;;
7047;SDS011;3565;53.254;10.352;2024-01-30T12:32:15;10.93;;;7.20;;
7047;SDS011;3565;53.254;10.352;2024-01-30T12:34:43;11.90;;;7.00;;
7047;SDS011;3565;53.254;10.352;2024-01-30T12:39:53;12.47;;;7.23;;
7047;SDS011;3565;53.254;10.352;2024-01-30T12:42:22;9.60;;;6.93;;
7047;SDS011;3565;53.254;10.352;2024-01-30T12:44:52;11.00;;;6.90;;
7047;SDS011;3565;53.254;10.352;2024-01-30T12:49:59;11.17;;;7.50;;
7047;SDS011;3565;53.254;10.352;2024-01-30T12:52:28;9.83;;;7.00;;
7047;SDS011;3565;53.254;10.352;2024-01-30T12:57:34;12.20;;;7.10;;
7047;SDS011;3565;53.254;10.352;2024-01-30T13:00:06;11.60;;;6.63;;
7047;SDS011;3565;53.254;10.352;2024-01-30T13:02:36;9.87;;;7.17;;
7047;SDS011;3565;53.254;10.352;2024-01-30T13:07:42;9.90;;;6.93;;
7047;SDS011;3565;53.254;10.352;2024-01-30T13:10:11;12.20;;;7.90;;
7047;SDS011;3565;53.254;10.352;2024-01-30T13:12:40;8.03;;;6.70;;
7047;SDS011;3565;53.254;10.352;2024-01-30T13:15:09;10.27;;;6.73;;
7047;SDS011;3565;53.254;10.352;2024-01-30T13:17:38;11.60;;;6.90;;
7047;SDS011;3565;53.254;10.352;2024-01-30T13:20:09;10.67;;;6.90;;
7047;SDS011;3565;53.254;10.352;2024-01-30T13:22:39;8.70;;;6.47;;
7047;SDS011;3565;53.254;10.352;2024-01-30T13:25:08;10.40;;;6.77;;
7047;SDS011;3565;53.254;10.352;2024-01-30T13:27:37;9.07;;;6.80;;
7047;SDS011;3565;53.254;10.352;2024-01-30T13:30:07;8.53;;;6.40;;
7047;SDS011;3565;53.254;10.352;2024-01-30T13:32:37;12.67;;;6.90;;
7047;SDS011;3565;53.254;10.352;2024-01-30T13:35:07;8.93;;;6.50;;
7047;SDS011;3565;53.254;10.352;2024-01-30T13:37:36;10.50;;;7.20;;
7047;SDS011;3565;53.254;10.352;2024-01-30T13:42:43;12.63;;;7.53;;
7047;SDS011;3565;53.254;10.352;2024-01-30T13:45:12;12.50;;;7.10;;
7047;SDS011;3565;53.254;10.352;2024-01-30T13:50:18;10.23;;;6.90;;
7047;SDS011;3565;53.254;10.352;2024-01-30T13:52:47;8.00;;;6.57;;
7047;SDS011;3565;53.254;10.352;2024-01-30T13:57:53;12.13;;;7.10;;
7047;SDS011;3565;53.254;10.352;2024-01-30T14:00:22;8.27;;;6.10;;
7047;SDS011;3565;53.254;10.352;2024-01-30T14:02:52;9.80;;;7.07;;
7047;SDS011;3565;53.254;10.352;2024-01-30T14:05:23;8.40;;;6.93;;
7047;SDS011;3565;53.254;10.352;2024-01-30T14:07:52;10.30;;;6.90;;
7047;SDS011;3565;53.254;10.352;2024-01-30T14:10:21;11.13;;;6.63;;
7047;SDS011;3565;53.254;10.352;2024-01-30T14:15:27;9.27;;;7.03;;
7047;SDS011;3565;53.254;10.352;2024-01-30T14:17:56;12.60;;;7.53;;
7047;SDS011;3565;53.254;10.352;2024-01-30T14:23:03;11.67;;;7.10;;
7047;SDS011;3565;53.254;10.352;2024-01-30T14:25:32;10.40;;;6.70;;
7047;SDS011;3565;53.254;10.352;2024-01-30T14:30:38;11.83;;;7.17;;
7047;SDS011;3565;53.254;10.352;2024-01-30T14:33:07;12.27;;;6.83;;
7047;SDS011;3565;53.254;10.352;2024-01-30T14:35:36;9.73;;;7.10;;
7047;SDS011;3565;53.254;10.352;2024-01-30T14:40:43;12.90;;;7.87;;
7047;SDS011;3565;53.254;10.352;2024-01-30T14:43:12;12.67;;;8.00;;
7047;SDS011;3565;53.254;10.352;2024-01-30T14:45:41;12.33;;;7.37;;
7047;SDS011;3565;53.254;10.352;2024-01-30T14:48:12;10.47;;;7.40;;
7047;SDS011;3565;53.254;10.352;2024-01-30T14:50:41;12.20;;;7.70;;
7047;SDS011;3565;53.254;10.352;2024-01-30T14:55:47;12.83;;;7.33;;
7047;SDS011;3565;53.254;10.352;2024-01-30T14:58:16;12.77;;;7.30;;
7047;SDS011;3565;53.254;10.352;2024-01-30T15:03:22;13.83;;;7.83;;
7047;SDS011;3565;53.254;10.352;2024-01-30T15:05:51;13.03;;;7.50;;
7047;SDS011;3565;53.254;10.352;2024-01-30T15:10:58;11.97;;;8.23;;
7047;SDS011;3565;53.254;10.352;2024-01-30T15:13:29;15.83;;;7.80;;
7047;SDS011;3565;53.254;10.352;2024-01-30T15:18:35;13.03;;;7.33;;
7047;SDS011;3565;53.254;10.352;2024-01-30T15:21:04;12.87;;;7.63;;
7047;SDS011;3565;53.254;10.352;2024-01-30T15:23:43;13.13;;;7.97;;
7047;SDS011;3565;53.254;10.352;2024-01-30T15:28:50;12.17;;;7.20;;
7047;SDS011;3565;53.254;10.352;2024-01-30T15:31:19;13.23;;;7.50;;
7047;SDS011;3565;53.254;10.352;2024-01-30T15:33:48;14.93;;;8.43;;
7047;SDS011;3565;53.254;10.352;2024-01-30T15:38:54;10.03;;;7.53;;
7047;SDS011;3565;53.254;10.352;2024-01-30T15:41:23;11.83;;;7.20;;
7047;SDS011;3565;53.254;10.352;2024-01-30T15:43:52;14.73;;;7.87;;
7047;SDS011;3565;53.254;10.352;2024-01-30T15:46:21;12.83;;;7.60;;
7047;SDS011;3565;53.254;10.352;2024-01-30T15:51:27;15.60;;;8.30;;
7047;SDS011;3565;53.254;10.352;2024-01-30T15:56:33;15.10;;;8.03;;
7047;SDS011;3565;53.254;10.352;2024-01-30T15:59:02;10.77;;;8.10;;
7047;SDS011;3565;53.254;10.352;2024-01-30T16:01:31;15.67;;;8.43;;
7047;SDS011;3565;53.254;10.352;2024-01-30T16:04:09;16.20;;;8.47;;
7047;SDS011;3565;53.254;10.352;2024-01-30T16:06:38;13.57;;;8.30;;
7047;SDS011;3565;53.254;10.352;2024-01-30T16:11:45;15.47;;;8.40;;
7047;SDS011;3565;53.254;10.352;2024-01-30T16:16:51;15.80;;;8.53;;
7047;SDS011;3565;53.254;10.352;2024-01-30T16:19:20;15.57;;;9.07;;
7047;SDS011;3565;53.254;10.352;2024-01-30T16:21:49;13.83;;;9.07;;
7047;SDS011;3565;53.254;10.352;2024-01-30T16:26:55;13.87;;;8.77;;
7047;SDS011;3565;53.254;10.352;2024-01-30T16:29:24;12.33;;;8.20;;
7047;SDS011;3565;53.254;10.352;2024-01-30T16:31:53;15.20;;;8.90;;
7047;SDS011;3565;53.254;10.352;2024-01-30T16:34:24;14.43;;;8.63;;
7047;SDS011;3565;53.254;10.352;2024-01-30T16:39:30;12.53;;;9.60;;
7047;SDS011;3565;53.254;10.352;2024-01-30T16:41:59;12.60;;;8.57;;
7047;SDS011;3565;53.254;10.352;2024-01-30T16:44:30;14.73;;;9.07;;
7047;SDS011;3565;53.254;10.352;2024-01-30T16:49:36;17.43;;;9.20;;
7047;SDS011;3565;53.254;10.352;2024-01-30T16:52:05;14.97;;;9.17;;
7047;SDS011;3565;53.254;10.352;2024-01-30T16:54:34;14.13;;;9.10;;
7047;SDS011;3565;53.254;10.352;2024-01-30T16:59:40;13.87;;;9.20;;
7047;SDS011;3565;53.254;10.352;2024-01-30T17:02:10;13.53;;;9.57;;
7047;SDS011;3565;53.254;10.352;2024-01-30T17:07:16;14.33;;;8.90;;
7047;SDS011;3565;53.254;10.352;2024-01-30T17:09:45;15.20;;;9.40;;
7047;SDS011;3565;53.254;10.352;2024-01-30T17:12:15;14.67;;;9.60;;
7047;SDS011;3565;53.254;10.352;2024-01-30T17:17:21;15.83;;;9.07;;
7047;SDS011;3565;53.254;10.352;2024-01-30T17:19:50;12.13;;;8.43;;
7047;SDS011;3565;53.254;10.352;2024-01-30T17:22:19;13.97;;;9.13;;
7047;SDS011;3565;53.254;10.352;2024-01-30T17:24:49;18.30;;;9.63;;
7047;SDS011;3565;53.254;10.352;2024-01-30T17:27:17;16.03;;;9.37;;
7047;SDS011;3565;53.254;10.352;2024-01-30T17:29:46;16.87;;;9.30;;
7047;SDS011;3565;53.254;10.352;2024-01-30T17:32:15;14.40;;;9.03;;
7047;SDS011;3565;53.254;10.352;2024-01-30T17:34:44;17.80;;;9.13;;
7047;SDS011;3565;53.254;10.352;2024-01-30T17:37:13;14.53;;;9.20;;
7047;SDS011;3565;53.254;10.352;2024-01-30T17:39:42;13.80;;;8.70;;
7047;SDS011;3565;53.254;10.352;2024-01-30T17:44:49;11.43;;;8.40;;
7047;SDS011;3565;53.254;10.352;2024-01-30T17:49:56;13.03;;;8.40;;
7047;SDS011;3565;53.254;10.352;2024-01-30T17:52:25;13.93;;;8.73;;
7047;SDS011;3565;53.254;10.352;2024-01-30T17:54:54;13.40;;;9.53;;
7047;SDS011;3565;53.254;10.352;2024-01-30T18:00:04;13.30;;;8.77;;
7047;SDS011;3565;53.254;10.352;2024-01-30T18:02:35;13.50;;;8.30;;
7047;SDS011;3565;53.254;10.352;2024-01-30T18:07:42;11.30;;;8.20;;
7047;SDS011;3565;53.254;10.352;2024-01-30T18:10:11;10.83;;;8.33;;
7047;SDS011;3565;53.254;10.352;2024-01-30T18:12:41;11.03;;;8.00;;
7047;SDS011;3565;53.254;10.352;2024-01-30T18:17:47;12.00;;;7.47;;
7047;SDS011;3565;53.254;10.352;2024-01-30T18:20:16;11.97;;;7.77;;
7047;SDS011;3565;53.254;10.352;2024-01-30T18:22:45;11.57;;;7.87;;
7047;SDS011;3565;53.254;10.352;2024-01-30T18:27:52;11.67;;;7.80;;
7047;SDS011;3565;53.254;10.352;2024-01-30T18:30:21;11.27;;;7.20;;
7047;SDS011;3565;53.254;10.352;2024-01-30T18:32:50;11.83;;;7.00;;
7047;SDS011;3565;53.254;10.352;2024-01-30T18:37:56;11.20;;;7.50;;
7047;SDS011;3565;53.254;10.352;2024-01-30T18:40:25;10.83;;;7.03;;
7047;SDS011;3565;53.254;10.352;2024-01-30T18:42:54;9.93;;;6.93;;
7047;SDS011;3565;53.254;10.352;2024-01-30T18:45:25;13.37;;;7.70;;
7047;SDS011;3565;53.254;10.352;2024-01-30T18:47:53;10.67;;;7.47;;
7047;SDS011;3565;53.254;10.352;2024-01-30T18:52:59;12.37;;;7.90;;
7047;SDS011;3565;53.254;10.352;2024-01-30T18:55:29;12.00;;;8.20;;
7047;SDS011;3565;53.254;10.352;2024-01-30T19:00:35;10.93;;;7.90;;
7047;SDS011;3565;53.254;10.352;2024-01-30T19:03:06;13.90;;;8.80;;
7047;SDS011;3565;53.254;10.352;2024-01-30T19:05:35;11.60;;;8.50;;
7047;SDS011;3565;53.254;10.352;2024-01-30T19:10:42;11.90;;;8.17;;
7047;SDS011;3565;53.254;10.352;2024-01-30T19:13:12;10.63;;;6.90;;
7047;SDS011;3565;53.254;10.352;2024-01-30T19:18:18;13.13;;;6.60;;
7047;SDS011;3565;53.254;10.352;2024-01-30T19:20:48;10.87;;;6.60;;
7047;SDS011;3565;53.254;10.352;2024-01-30T19:23:18;8.93;;;6.67;;